x

Thomas Point, Md (tplm2) Weather Station

12:00am - Fri 30th Sep 2016 All times are EDT. -4 hours from GMT.

  • Wind
    20mph, 23mph gusts
  • Sea Temp 72°f
  • Air Temp 65°f
  • Sea Pressure 1022.2mb
  • Thomas Point, Md
  • Thomas Point, Md

More Historic Weather Station data

Upgrade to MSW Pro to gain access to the past 30 days of data for over 8000 Wavebouys and Weather Stations around the globe.

Join Pro

Comparision Forecast

View Surf forecast
   
Fri 09/30 12:00am 20 23 mph 1022.2mb 72f 65f
Thu 09/29 11:00pm 26 30 mph 1022mb 73f 65f
10:00pm 31 36 mph 1022.2mb 73f 66f
9:00pm 33 37 mph 1021.8mb 73f 65f
8:00pm 24 29 mph 1022.1mb 72f 66f
7:00pm 23 28 mph 1022.2mb 73f 67f
6:00pm 28 29 mph 1022.4mb 73f 67f
5:00pm 25 31 mph 1022.5mb 73f 68f
4:00pm 28 32 mph 1021.8mb 73f 69f
3:00pm 24 28 mph 1022mb 73f 69f
2:00pm 26 31 mph 1022mb 73f 69f
1:00pm 30 33 mph 1021.8mb 73f 69f
12:00pm 29 34 mph 1021.8mb 73f 69f
11:00am 28 30 mph 1022mb 73f 69f
10:00am 29 33 mph 1021.5mb 73f 69f
9:00am 32 37 mph 1020.7mb 73f 69f
8:00am 32 36 mph 1020.1mb 73f 69f
7:00am 31 34 mph 1019.7mb 73f 68f
6:00am 31 34 mph 1019.2mb 73f 68f
5:00am 28 31 mph 1019.4mb 73f 67f
4:00am 25 30 mph 1019.2mb 73f 68f
3:00am 23 26 mph 1019.4mb 73f 68f
2:00am 30 33 mph 1017.9mb 73f 69f
1:00am 32 37 mph 1017.4mb 73f 69f
12:00am 28 31 mph 1018.4mb 73f 69f
Wed 09/28 11:00pm 32 36 mph 1017.5mb 73f 69f
10:00pm 23 26 mph 1019.1mb 73f 69f
9:00pm 25 29 mph 1018.1mb 73f 69f
8:00pm 20 23 mph 1018.3mb 73f 69f
7:00pm 16 17 mph 1018.4mb 74f 70f
6:00pm 20 21 mph 1017.3mb 74f 69f
5:00pm 17 20 mph 1017mb 74f 71f
4:00pm 16 18 mph 1016.8mb 74f 71f
3:00pm 14 17 mph 1017.4mb 73f 71f
2:00pm 8 10 mph 1017.4mb 74f 69f
1:00pm 9 11 mph 1017.8mb 74f 67f
12:00pm 7 8 mph 1017.7mb 74f 66f
11:00am 10 13 mph 1017.5mb 74f 65f
10:00am 15 17 mph 1017mb 74f 65f
9:00am 18 20 mph 1017.1mb 74f 65f
8:00am 15 17 mph 1016.3mb 73f 65f
7:00am 16 18 mph 1016mb 74f 65f
6:00am 13 14 mph 1016.2mb 74f 65f
5:00am 10 11 mph 1015.5mb 74f 66f
4:00am 9 10 mph 1015.8mb 74f 67f
3:00am 8 9 mph 1015.9mb 74f 67f
2:00am 7 8 mph 1015.9mb 74f 67f
1:00am 7 8 mph 1015.8mb 74f 68f
12:00am 5 6 mph 1015.6mb 74f 68f
Tue 09/27 11:00pm 8 9 mph 1015.3mb 74f 70f
10:00pm 8 9 mph 1015mb 74f 69f
9:00pm 10 13 mph 1014.8mb 74f 69f
8:00pm 9 11 mph 1014.6mb 74f 70f
7:00pm 9 10 mph 1014.2mb 74f 70f
6:00pm 8 9 mph 1013.9mb 74f 70f
5:00pm 8 9 mph 1013.8mb 74f 70f
4:00pm 2 3 mph 1014mb 74f 70f
3:00pm 2
mph
1014.2mb 74f 70f
2:00pm 2
mph
1015mb 74f 69f
1:00pm 2
mph
1015.6mb 74f 68f
12:00pm 5 6 mph 1015.9mb 74f 67f
11:00am 8 9 mph 1016.6mb 74f 68f
10:00am 6
mph
1016.6mb 73f 68f
9:00am 8 9 mph 1016.4mb 74f 67f
8:00am 9 10 mph 1015.8mb 73f 67f
7:00am 10 11 mph 1015.2mb 73f 67f
6:00am 7 8 mph 1014.9mb 74f 67f
5:00am 11 13 mph 1015.3mb 74f 67f
4:00am 11 13 mph 1015.2mb 74f 67f
3:00am 11 13 mph 1015.5mb 74f 67f
2:00am 11 13 mph 1015.4mb 74f 68f
1:00am 16 17 mph 1015.6mb 74f 69f
12:00am 15 16 mph 1016.4mb 74f 68f
Mon 09/26 11:00pm 28 31 mph 1016mb 74f 70f
10:00pm 29 34 mph 1016.3mb 74f 71f
9:00pm 20 22 mph 1018mb 74f 72f
8:00pm 20 23 mph 1018.3mb 74f 72f
7:00pm 18 22 mph 1017.9mb 74f 71f
6:00pm 21 22 mph 1017.8mb 74f 71f
5:00pm 21 22 mph 1017.9mb 74f 71f
4:00pm 21 23 mph 1018.5mb 74f 70f
3:00pm 22 24 mph 1019.6mb 74f 70f
2:00pm 22 23 mph 1020.3mb 74f 69f
1:00pm 21 23 mph 1021mb 75f 69f
12:00pm 21 22 mph 1021.6mb 74f 68f
11:00am 21 22 mph 1021.8mb 74f 68f
10:00am 22 23 mph 1021.5mb 74f 67f
9:00am 20 22 mph 1021.7mb 74f 67f
8:00am 22 23 mph 1021.6mb 74f 67f
7:00am 17 21 mph 1021.7mb 74f 67f
6:00am 14 16 mph 1021.7mb 74f 66f